Newdale, Canada
Current Conditions -  °F | °C
As of 11:00 PM on Wednesday 17 Dec 2014 (Local Time) from CYBR Reporting Station
Few Clouds Few Clouds  
Wind Chill: -4°   Ceiling: Unl
Heat Index: -4°   Visibility: 15mi
Dew Point: -8°   Wind: 2mph
Humidity: 85%   Direction: 80°E
Pressure: 30.22"   Gusts: NA
Location:  50.35°N, 100.2°W
Report Text: CYBR 180500Z 08002KT 15SM FEW240 M20/M22 A3022 RMK CI1 SLP280
Loading
Personal Weather Stations






























Interactive Weather Map New forecast layout! Learn more

10-Day Weather Forecast

Advertisements
Track Severe Weather on mobile